Check out our new BloomSky Weather System.

Active alerts


No alerts


Thunder radar  blitzortung!


Rain radar more information rain snow radar


Visit our other weather sites:

Template documentation
and downloads

And another site



Weather Underground History page Text

Daily Summary for May 30, 2017 Units:  Metric    English   Both
« Previous Day
Next Day »
Daily Weekly Monthly Yearly Custom
  High: Low: Average:
Temperature: 31.6 °C 20.9 °C 26.2 °C
Dew Point: 23.8 °C 20.6 °C 22.2 °C
Humidity: 99 % 59 % 80 %
Wind Speed: 14.5 km/h 0 km/h 2.4 km/h
Wind Gust: 20.9 km/h - -
Wind:- - South
Pressure: 1016.8 hPa 1013.8 hPa -
Precipitation: 0 mm    
Historical Graphs
 
 
Tabular Data for May 30, 2017
Time Temperature Dew Point Pressure Wind Wind Speed Wind Gust Humidity Rainfall Rate (Hourly)
00:03 22.7 °C 21.5 °C 1016.1 hPa Calm     93 % 0 mm
00:08 22.6 °C 21.4 °C 1016.1 hPa Calm     93 % 0 mm
00:13 22.5 °C 21.3 °C 1016.1 hPa Calm     93 % 0 mm
00:18 22.4 °C 21.2 °C 1016.1 hPa Calm     93 % 0 mm
00:23 22.4 °C 21.4 °C 1016.1 hPa Calm     94 % 0 mm
00:28 22.4 °C 21.4 °C 1016.1 hPa Calm     94 % 0 mm
00:33 22.3 °C 21.3 °C 1016.1 hPa Calm     94 % 0 mm
00:38 22.4 °C 21.4 °C 1016.1 hPa Calm     94 % 0 mm
00:43 22.3 °C 21.3 °C 1016.1 hPa Calm     94 % 0 mm
00:48 22.3 °C 21.3 °C 1016.1 hPa Calm   1.6 km/h 94 % 0 mm
00:53 22.3 °C 21.5 °C 1016.5 hPa Calm   1.6 km/h 95 % 0 mm
00:58 22.1 °C 21.1 °C 1016.5 hPa Calm   1.6 km/h 94 % 0 mm
01:03 22 °C 21 °C 1016.5 hPa Calm   1.6 km/h 94 % 0 mm
01:08 22.1 °C 21.3 °C 1016.1 hPa Calm     95 % 0 mm
01:13 22.1 °C 21.3 °C 1016.1 hPa Calm   1.6 km/h 95 % 0 mm
01:18 22 °C 21.2 °C 1016.1 hPa Calm   1.6 km/h 95 % 0 mm
01:23 22.1 °C 21.3 °C 1016.1 hPa Calm   1.6 km/h 95 % 0 mm
01:28 22 °C 21.2 °C 1016.1 hPa Calm   1.6 km/h 95 % 0 mm
01:33 21.9 °C 21.1 °C 1016.1 hPa Calm   1.6 km/h 95 % 0 mm
01:38 21.9 °C 21.2 °C 1016.1 hPa Calm     96 % 0 mm
01:43 21.9 °C 21.1 °C 1016.1 hPa Calm     95 % 0 mm
01:48 21.9 °C 21.2 °C 1016.1 hPa Calm     96 % 0 mm
01:53 21.9 °C 21.2 °C 1016.1 hPa Calm     96 % 0 mm
01:58 21.8 °C 21.1 °C 1016.1 hPa Calm     96 % 0 mm
02:03 21.7 °C 21 °C 1016.1 hPa Calm     96 % 0 mm
02:08 21.7 °C 21 °C 1016.1 hPa Calm     96 % 0 mm
02:13 21.7 °C 21 °C 1016.1 hPa Calm     96 % 0 mm
02:18 21.7 °C 21 °C 1016.1 hPa Calm     96 % 0 mm
02:23 21.6 °C 20.9 °C 1015.8 hPa Calm   1.6 km/h 96 % 0 mm
02:28 21.6 °C 20.9 °C 1015.8 hPa Calm   1.6 km/h 96 % 0 mm
02:33 21.6 °C 20.9 °C 1015.8 hPa Calm   1.6 km/h 96 % 0 mm
02:38 21.5 °C 20.8 °C 1015.8 hPa Calm   1.6 km/h 96 % 0 mm
02:43 21.4 °C 20.7 °C 1015.8 hPa Calm     96 % 0 mm
02:48 21.4 °C 20.7 °C 1015.8 hPa Calm     96 % 0 mm
02:53 21.3 °C 20.6 °C 1015.8 hPa Calm     96 % 0 mm
02:58 21.3 °C 20.8 °C 1015.8 hPa Calm     97 % 0 mm
03:03 21.3 °C 20.8 °C 1015.8 hPa Calm     97 % 0 mm
03:08 21.2 °C 20.7 °C 1015.8 hPa Calm     97 % 0 mm
03:13 21.2 °C 20.7 °C 1015.8 hPa Calm     97 % 0 mm
03:18 21.3 °C 20.8 °C 1015.5 hPa Calm   1.6 km/h 97 % 0 mm
03:23 21.3 °C 20.8 °C 1015.5 hPa Calm   1.6 km/h 97 % 0 mm
03:28 21.3 °C 20.8 °C 1015.5 hPa Calm   1.6 km/h 97 % 0 mm
03:39 21.2 °C 20.7 °C 1015.5 hPa Calm   1.6 km/h 97 % 0 mm
03:44 21.2 °C 20.7 °C 1015.5 hPa Calm   1.6 km/h 97 % 0 mm
03:49 21.2 °C 20.7 °C 1015.5 hPa Calm   1.6 km/h 97 % 0 mm
03:54 21.2 °C 20.7 °C 1015.5 hPa Calm   1.6 km/h 97 % 0 mm
03:59 21.2 °C 20.7 °C 1015.8 hPa Calm   1.6 km/h 97 % 0 mm
04:00 21.3 °C 20.8 °C 1015.5 hPa Calm   1.6 km/h 97 % 0 mm
04:05 21.3 °C 20.8 °C 1015.5 hPa Calm   1.6 km/h 97 % 0 mm
04:10 21.3 °C 20.8 °C 1015.8 hPa Calm   1.6 km/h 97 % 0 mm
04:15 21.3 °C 20.8 °C 1015.8 hPa Calm   1.6 km/h 97 % 0 mm
04:20 21.3 °C 20.8 °C 1015.8 hPa Calm   1.6 km/h 97 % 0 mm
04:25 21.3 °C 20.8 °C 1015.8 hPa NW 1.6 km/h 3.2 km/h 97 % 0 mm
04:30 21.2 °C 20.7 °C 1015.8 hPa Calm   3.2 km/h 97 % 0 mm
04:35 21.2 °C 20.7 °C 1015.8 hPa Calm   3.2 km/h 97 % 0 mm
04:40 21.2 °C 20.9 °C 1015.8 hPa Calm   3.2 km/h 98 % 0 mm
04:45 21.2 °C 20.9 °C 1016.1 hPa Calm   3.2 km/h 98 % 0 mm
04:50 21.2 °C 20.9 °C 1016.1 hPa Calm   3.2 km/h 98 % 0 mm
04:54 21.2 °C 20.9 °C 1016.1 hPa Calm   3.2 km/h 98 % 0 mm
04:59 21.2 °C 20.9 °C 1016.1 hPa Calm   3.2 km/h 98 % 0 mm
05:04 21.1 °C 20.8 °C 1016.1 hPa Calm   1.6 km/h 98 % 0 mm
05:09 21.1 °C 20.8 °C 1016.1 hPa Calm   1.6 km/h 98 % 0 mm
05:14 21.1 °C 20.8 °C 1016.1 hPa Calm   1.6 km/h 98 % 0 mm
05:19 21.1 °C 20.8 °C 1016.1 hPa Calm   1.6 km/h 98 % 0 mm
05:24 21 °C 20.7 °C 1016.1 hPa Calm   1.6 km/h 98 % 0 mm
05:29 21 °C 20.7 °C 1016.1 hPa Calm   1.6 km/h 98 % 0 mm
05:34 21 °C 20.7 °C 1016.1 hPa Calm   1.6 km/h 98 % 0 mm
05:39 21 °C 20.7 °C 1016.1 hPa Calm   1.6 km/h 98 % 0 mm
05:44 21 °C 20.7 °C 1016.1 hPa Calm   1.6 km/h 98 % 0 mm
05:49 20.9 °C 20.6 °C 1016.1 hPa Calm   1.6 km/h 98 % 0 mm
05:54 20.9 °C 20.6 °C 1016.1 hPa Calm   1.6 km/h 98 % 0 mm
05:59 20.9 °C 20.6 °C 1016.1 hPa Calm   1.6 km/h 98 % 0 mm
06:04 20.9 °C 20.6 °C 1016.1 hPa Calm   1.6 km/h 98 % 0 mm
06:14 20.9 °C 20.6 °C 1016.1 hPa Calm   1.6 km/h 98 % 0 mm
06:19 20.9 °C 20.6 °C 1016.1 hPa NNW 1.6 km/h 1.6 km/h 98 % 0 mm
06:29 20.9 °C 20.6 °C 1016.1 hPa Calm   1.6 km/h 98 % 0 mm
06:34 20.9 °C 20.6 °C 1016.1 hPa Calm   1.6 km/h 98 % 0 mm
06:39 21 °C 20.7 °C 1016.1 hPa Calm   3.2 km/h 98 % 0 mm
06:44 21 °C 20.7 °C 1016.1 hPa Calm   3.2 km/h 98 % 0 mm
06:49 21.1 °C 20.8 °C 1016.1 hPa NNW 1.6 km/h 3.2 km/h 98 % 0 mm
06:54 21.1 °C 20.8 °C 1016.1 hPa Calm   4.8 km/h 98 % 0 mm
06:59 21.1 °C 20.8 °C 1016.1 hPa North 3.2 km/h 4.8 km/h 98 % 0 mm
07:04 21.2 °C 20.9 °C 1016.1 hPa Calm   4.8 km/h 98 % 0 mm
07:09 21.2 °C 20.9 °C 1016.1 hPa NNW 1.6 km/h 3.2 km/h 98 % 0 mm
07:15 21.3 °C 21 °C 1016.1 hPa Calm   3.2 km/h 98 % 0 mm
07:19 21.5 °C 21.2 °C 1016.1 hPa Calm   3.2 km/h 98 % 0 mm
07:25 21.8 °C 21.6 °C 1016.5 hPa NNE 1.6 km/h 3.2 km/h 99 % 0 mm
07:30 21.9 °C 21.6 °C 1016.5 hPa North 1.6 km/h 3.2 km/h 98 % 0 mm
07:35 22.1 °C 21.8 °C 1016.5 hPa Calm   3.2 km/h 98 % 0 mm
07:40 22.2 °C 21.9 °C 1016.5 hPa Calm   3.2 km/h 98 % 0 mm
07:45 22.3 °C 22 °C 1016.5 hPa North 1.6 km/h 3.2 km/h 98 % 0 mm
07:50 22.3 °C 22 °C 1016.5 hPa Calm   4.8 km/h 98 % 0 mm
07:51 22.4 °C 22.1 °C 1016.5 hPa Calm   4.8 km/h 98 % 0 mm
07:56 22.7 °C 22.4 °C 1016.5 hPa Calm   4.8 km/h 98 % 0 mm
08:01 22.6 °C 22.1 °C 1016.5 hPa NW 3.2 km/h 3.2 km/h 97 % 0 mm
08:06 22.7 °C 22.2 °C 1016.5 hPa Calm   4.8 km/h 97 % 0 mm
08:11 22.8 °C 22.3 °C 1016.8 hPa North 1.6 km/h 4.8 km/h 97 % 0 mm
08:16 22.9 °C 22.4 °C 1016.8 hPa Calm   4.8 km/h 97 % 0 mm
08:21 23.1 °C 22.6 °C 1016.5 hPa Calm   4.8 km/h 97 % 0 mm
08:26 23.2 °C 22.5 °C 1016.5 hPa NNE 3.2 km/h 4.8 km/h 96 % 0 mm
08:31 23.1 °C 22.3 °C 1016.5 hPa NNW 4.8 km/h 8 km/h 95 % 0 mm
08:36 23.2 °C 22.2 °C 1016.5 hPa Calm   8 km/h 94 % 0 mm
08:41 23.4 °C 22.4 °C 1016.5 hPa Calm   8 km/h 94 % 0 mm
08:46 23.9 °C 22.7 °C 1016.5 hPa North 3.2 km/h 8 km/h 93 % 0 mm
08:51 24.1 °C 22.5 °C 1016.8 hPa NNE 1.6 km/h 8 km/h 91 % 0 mm
08:56 24.4 °C 22.5 °C 1016.8 hPa ESE 1.6 km/h 8 km/h 89 % 0 mm
09:01 24.6 °C 22.7 °C 1016.5 hPa ENE 1.6 km/h 8 km/h 89 % 0 mm
09:06 24.9 °C 22.6 °C 1016.5 hPa Calm   6.4 km/h 87 % 0 mm
09:11 25.2 °C 22.5 °C 1016.5 hPa North 1.6 km/h 9.7 km/h 85 % 0 mm
09:12 25.2 °C 22.5 °C 1016.5 hPa ENE 4.8 km/h 9.7 km/h 85 % 0 mm
09:17 25.5 °C 22.6 °C 1016.5 hPa Calm   9.7 km/h 84 % 0 mm
09:22 25.8 °C 22.7 °C 1016.5 hPa Calm   9.7 km/h 83 % 0 mm
09:27 26 °C 22.7 °C 1016.5 hPa Calm   8 km/h 82 % 0 mm
09:32 26.2 °C 22.9 °C 1016.5 hPa East 1.6 km/h 8 km/h 82 % 0 mm
09:37 26.4 °C 22.9 °C 1016.5 hPa NNE 3.2 km/h 8 km/h 81 % 0 mm
09:42 26.7 °C 23.2 °C 1016.5 hPa Calm   8 km/h 81 % 0 mm
09:47 26.9 °C 22.9 °C 1016.5 hPa WNW 4.8 km/h 8 km/h 79 % 0 mm
09:52 26.8 °C 22.8 °C 1016.5 hPa Calm   9.7 km/h 79 % 0 mm
09:57 26.9 °C 22.9 °C 1016.5 hPa Calm   9.7 km/h 79 % 0 mm
10:02 27.1 °C 23.1 °C 1016.5 hPa East 6.4 km/h 9.7 km/h 79 % 0 mm
10:07 27.1 °C 23.1 °C 1016.5 hPa North 3.2 km/h 9.7 km/h 79 % 0 mm
10:12 27.4 °C 23.2 °C 1016.5 hPa NE 3.2 km/h 9.7 km/h 78 % 0 mm
10:17 27.4 °C 23.2 °C 1016.5 hPa Calm   9.7 km/h 78 % 0 mm
10:22 27.7 °C 23.3 °C 1016.5 hPa North 3.2 km/h 9.7 km/h 77 % 0 mm
10:27 27.9 °C 23.3 °C 1016.5 hPa NE 6.4 km/h 9.7 km/h 76 % 0 mm
10:32 27.9 °C 23.1 °C 1016.5 hPa NNW 6.4 km/h 8 km/h 75 % 0 mm
10:37 28 °C 23.4 °C 1016.1 hPa Calm   9.7 km/h 76 % 0 mm
10:42 28.2 °C 23.8 °C 1016.5 hPa West 1.6 km/h 9.7 km/h 77 % 0 mm
10:47 28.2 °C 23.3 °C 1016.5 hPa NW 1.6 km/h 9.7 km/h 75 % 0 mm
10:52 28 °C 23.4 °C 1016.5 hPa NE 8 km/h 11.3 km/h 76 % 0 mm
10:57 28.2 °C 23.6 °C 1016.1 hPa ENE 1.6 km/h 11.3 km/h 76 % 0 mm
11:02 28.3 °C 23 °C 1016.1 hPa East 3.2 km/h 11.3 km/h 73 % 0 mm
11:07 28.3 °C 23 °C 1016.1 hPa NNE 6.4 km/h 11.3 km/h 73 % 0 mm
11:12 28.3 °C 23.2 °C 1016.1 hPa NNW 3.2 km/h 19.3 km/h 74 % 0 mm
11:17 28.3 °C 23.2 °C 1016.1 hPa WNW 6.4 km/h 19.3 km/h 74 % 0 mm
11:22 28.3 °C 22.8 °C 1016.1 hPa ENE 4.8 km/h 19.3 km/h 72 % 0 mm
11:27 28.4 °C 23.1 °C 1016.1 hPa Calm   11.3 km/h 73 % 0 mm
11:32 28.8 °C 23.5 °C 1016.1 hPa NE 4.8 km/h 12.9 km/h 73 % 0 mm
11:37 28.8 °C 23 °C 1016.1 hPa NNW 6.4 km/h 12.9 km/h 71 % 0 mm
11:42 28.9 °C 23.1 °C 1016.1 hPa ESE 1.6 km/h 12.9 km/h 71 % 0 mm
11:43 29 °C 23.4 °C 1016.1 hPa NE 8 km/h 12.9 km/h 72 % 0 mm
11:48 28.8 °C 22.8 °C 1016.1 hPa Calm   14.5 km/h 70 % 0 mm
11:53 29.2 °C 23.6 °C 1016.1 hPa East 11.3 km/h 14.5 km/h 72 % 0 mm
11:54 29.2 °C 23.6 °C 1016.1 hPa ESE 9.7 km/h 14.5 km/h 72 % 0 mm
11:59 29.4 °C 23.4 °C 1016.1 hPa WNW 4.8 km/h 16.1 km/h 70 % 0 mm
12:04 29.6 °C 23.5 °C 1016.1 hPa WSW 1.6 km/h 16.1 km/h 70 % 0 mm
12:09 29.6 °C 22.8 °C 1016.1 hPa NW 3.2 km/h 16.1 km/h 67 % 0 mm
12:14 29.8 °C 23.3 °C 1016.1 hPa SSE 3.2 km/h 14.5 km/h 68 % 0 mm
12:19 29.9 °C 23.3 °C 1016.1 hPa NNW 3.2 km/h 14.5 km/h 68 % 0 mm
12:24 30.1 °C 23 °C 1016.1 hPa Calm   11.3 km/h 66 % 0 mm
12:29 29.8 °C 22.8 °C 1016.1 hPa West 1.6 km/h 12.9 km/h 66 % 0 mm
12:34 29.8 °C 23.5 °C 1016.1 hPa North 4.8 km/h 12.9 km/h 69 % 0 mm
12:39 29.8 °C 22.8 °C 1016.1 hPa NNW 11.3 km/h 12.9 km/h 66 % 0 mm
12:44 29.7 °C 22.7 °C 1016.1 hPa WNW 8 km/h 17.7 km/h 66 % 0 mm
12:49 29.3 °C 22.3 °C 1016.1 hPa NNW 4.8 km/h 17.7 km/h 66 % 0 mm
12:54 29.4 °C 22.9 °C 1016.1 hPa ENE 8 km/h 17.7 km/h 68 % 0 mm
12:59 29.5 °C 23 °C 1016.1 hPa West 4.8 km/h 16.1 km/h 68 % 0 mm
13:04 29.7 °C 22.9 °C 1015.8 hPa North 4.8 km/h 16.1 km/h 67 % 0 mm
13:09 29.8 °C 22.8 °C 1015.8 hPa East 4.8 km/h 16.1 km/h 66 % 0 mm
13:14 29.7 °C 22.4 °C 1015.8 hPa NW 1.6 km/h 12.9 km/h 65 % 0 mm
13:19 30 °C 22.4 °C 1015.8 hPa East 4.8 km/h 12.9 km/h 64 % 0 mm
13:24 29.8 °C 22.3 °C 1015.8 hPa East 1.6 km/h 16.1 km/h 64 % 0 mm
13:29 29.7 °C 22.7 °C 1015.8 hPa NE 4.8 km/h 16.1 km/h 66 % 0 mm
13:34 29.8 °C 22.8 °C 1015.8 hPa NNW 3.2 km/h 16.1 km/h 66 % 0 mm
13:39 30.3 °C 23.2 °C 1015.5 hPa NNW 4.8 km/h 14.5 km/h 66 % 0 mm
13:44 30.9 °C 23.5 °C 1015.5 hPa WNW 3.2 km/h 14.5 km/h 65 % 0 mm
13:45 31 °C 23.6 °C 1015.5 hPa NNW 6.4 km/h 12.9 km/h 65 % 0 mm
13:50 30.7 °C 22.6 °C 1015.5 hPa NNE 6.4 km/h 11.3 km/h 62 % 0 mm
13:55 30.6 °C 22.7 °C 1015.5 hPa NE 3.2 km/h 12.9 km/h 63 % 0 mm
14:06 30.8 °C 22.9 °C 1015.5 hPa NNW 8 km/h 12.9 km/h 63 % 0 mm
14:11 30.7 °C 22.8 °C 1015.1 hPa NW 4.8 km/h 14.5 km/h 63 % 0 mm
14:16 30.8 °C 22.7 °C 1015.1 hPa NW 1.6 km/h 14.5 km/h 62 % 0 mm
14:21 31.1 °C 23 °C 1015.1 hPa NNW 3.2 km/h 14.5 km/h 62 % 0 mm
14:27 31.1 °C 23 °C 1015.1 hPa NNW 4.8 km/h 11.3 km/h 62 % 0 mm
14:32 30.9 °C 23 °C 1015.1 hPa North 14.5 km/h 14.5 km/h 63 % 0 mm
14:37 30.8 °C 22.4 °C 1014.8 hPa NNW 3.2 km/h 19.3 km/h 61 % 0 mm
14:42 30.7 °C 23.1 °C 1014.8 hPa ENE 8 km/h 19.3 km/h 64 % 0 mm
14:47 30.9 °C 22.8 °C 1014.8 hPa NW 3.2 km/h 19.3 km/h 62 % 0 mm
14:52 30.9 °C 22.5 °C 1014.8 hPa East 4.8 km/h 14.5 km/h 61 % 0 mm
14:57 30.8 °C 22.4 °C 1014.8 hPa NNW 1.6 km/h 14.5 km/h 61 % 0 mm
15:02 30.7 °C 22.6 °C 1014.8 hPa NW 6.4 km/h 12.9 km/h 62 % 0 mm
15:07 30.3 °C 22.2 °C 1014.8 hPa NNE 3.2 km/h 12.9 km/h 62 % 0 mm
15:12 29.9 °C 22.1 °C 1014.8 hPa ENE 11.3 km/h 12.9 km/h 63 % 0 mm
15:17 30.3 °C 23 °C 1014.4 hPa North 4.8 km/h 12.9 km/h 65 % 0 mm
15:22 30.7 °C 23.1 °C 1014.4 hPa NW 8 km/h 12.9 km/h 64 % 0 mm
15:27 30.8 °C 22.9 °C 1014.4 hPa WNW 3.2 km/h 12.9 km/h 63 % 0 mm
15:32 31 °C 22.9 °C 1014.4 hPa ENE 3.2 km/h 12.9 km/h 62 % 0 mm
15:37 30.9 °C 22.5 °C 1014.4 hPa SSE 4.8 km/h 12.9 km/h 61 % 0 mm
15:42 31.1 °C 22.4 °C 1014.4 hPa ESE 3.2 km/h 12.9 km/h 60 % 0 mm
15:47 31.2 °C 22.8 °C 1014.1 hPa North 3.2 km/h 12.9 km/h 61 % 0 mm
15:52 30.9 °C 22.5 °C 1014.1 hPa NNW 1.6 km/h 20.9 km/h 61 % 0 mm
15:57 30.7 °C 22.6 °C 1014.1 hPa ESE 1.6 km/h 20.9 km/h 62 % 0 mm
16:02 30.9 °C 23 °C 1014.1 hPa NNW 4.8 km/h 20.9 km/h 63 % 0 mm
16:07 31.2 °C 22.5 °C 1014.1 hPa North 9.7 km/h 14.5 km/h 60 % 0 mm
16:12 31.3 °C 22.3 °C 1013.8 hPa North 4.8 km/h 14.5 km/h 59 % 0 mm
16:17 31.4 °C 22.4 °C 1014.1 hPa NNW 4.8 km/h 14.5 km/h 59 % 0 mm
16:22 31.2 °C 22.5 °C 1014.1 hPa NNW 3.2 km/h 12.9 km/h 60 % 0 mm
16:27 31.2 °C 22.8 °C 1013.8 hPa West 6.4 km/h 12.9 km/h 61 % 0 mm
16:28 31.2 °C 22.8 °C 1013.8 hPa WNW 1.6 km/h 12.9 km/h 61 % 0 mm
16:33 31.6 °C 23.2 °C 1013.8 hPa NNE 3.2 km/h 12.9 km/h 61 % 0 mm
16:38 31.4 °C 22.4 °C 1013.8 hPa ENE 1.6 km/h 12.9 km/h 59 % 0 mm
16:43 31.4 °C 23.2 °C 1013.8 hPa NE 9.7 km/h 14.5 km/h 62 % 0 mm
16:48 31.5 °C 23.1 °C 1013.8 hPa ESE 3.2 km/h 16.1 km/h 61 % 0 mm
16:53 31.6 °C 23.2 °C 1013.8 hPa WNW 3.2 km/h 16.1 km/h 61 % 0 mm
16:58 31.4 °C 22.7 °C 1013.8 hPa NNW 11.3 km/h 16.1 km/h 60 % 0 mm
17:03 31.2 °C 22.8 °C 1013.8 hPa NNW 3.2 km/h 19.3 km/h 61 % 0 mm
17:08 31.1 °C 22.7 °C 1013.8 hPa NW 3.2 km/h 19.3 km/h 61 % 0 mm
17:13 31.3 °C 22.9 °C 1013.8 hPa East 6.4 km/h 19.3 km/h 61 % 0 mm
17:18 31.1 °C 23 °C 1013.8 hPa Calm   12.9 km/h 62 % 0 mm
17:24 30.9 °C 22.8 °C 1013.8 hPa North 6.4 km/h 14.5 km/h 62 % 0 mm
17:29 30.7 °C 22.6 °C 1013.8 hPa NNW 8 km/h 14.5 km/h 62 % 0 mm
17:34 30.5 °C 22.1 °C 1013.8 hPa NNW 9.7 km/h 14.5 km/h 61 % 0 mm
17:39 30.4 °C 22.3 °C 1013.8 hPa NE 3.2 km/h 9.7 km/h 62 % 0 mm
17:44 30.4 °C 22.3 °C 1013.8 hPa North 4.8 km/h 9.7 km/h 62 % 0 mm
17:49 30.6 °C 22.5 °C 1013.8 hPa WNW 4.8 km/h 9.7 km/h 62 % 0 mm
17:54 30.5 °C 22.7 °C 1013.8 hPa North 6.4 km/h 11.3 km/h 63 % 0 mm
17:59 30.4 °C 22.6 °C 1013.8 hPa Calm   11.3 km/h 63 % 0 mm
18:04 30.4 °C 22.6 °C 1013.8 hPa NNW 6.4 km/h 11.3 km/h 63 % 0 mm
18:09 30.2 °C 22.4 °C 1014.1 hPa North 6.4 km/h 12.9 km/h 63 % 0 mm
18:14 30 °C 22.2 °C 1014.1 hPa NNW 3.2 km/h 12.9 km/h 63 % 0 mm
18:19 29.9 °C 22.1 °C 1014.1 hPa WNW 3.2 km/h 12.9 km/h 63 % 0 mm
18:24 29.9 °C 22.3 °C 1014.1 hPa NNW 1.6 km/h 9.7 km/h 64 % 0 mm
18:29 29.9 °C 22.3 °C 1014.1 hPa NW 1.6 km/h 9.7 km/h 64 % 0 mm
18:34 29.9 °C 22.6 °C 1014.4 hPa North 1.6 km/h 12.9 km/h 65 % 0 mm
18:39 29.9 °C 22.6 °C 1014.4 hPa Calm   12.9 km/h 65 % 0 mm
18:44 29.8 °C 22.8 °C 1014.4 hPa ENE 3.2 km/h 12.9 km/h 66 % 0 mm
18:49 29.7 °C 22.9 °C 1014.1 hPa East 3.2 km/h 8 km/h 67 % 0 mm
18:54 29.6 °C 23.1 °C 1014.1 hPa SSE 3.2 km/h 9.7 km/h 68 % 0 mm
18:59 29.3 °C 23 °C 1014.1 hPa East 8 km/h 9.7 km/h 69 % 0 mm
19:04 29.1 °C 23.1 °C 1014.1 hPa ENE 3.2 km/h 9.7 km/h 70 % 0 mm
19:09 29 °C 23 °C 1014.1 hPa Calm   9.7 km/h 70 % 0 mm
19:14 28.9 °C 22.9 °C 1014.4 hPa ENE 4.8 km/h 9.7 km/h 70 % 0 mm
19:19 28.8 °C 22.8 °C 1014.4 hPa Calm   11.3 km/h 70 % 0 mm
19:24 28.8 °C 22.8 °C 1014.4 hPa East 1.6 km/h 11.3 km/h 70 % 0 mm
19:29 28.7 °C 22.7 °C 1014.4 hPa East 4.8 km/h 11.3 km/h 70 % 0 mm
19:34 28.6 °C 22.8 °C 1014.4 hPa ENE 1.6 km/h 8 km/h 71 % 0 mm
19:39 28.6 °C 22.8 °C 1014.4 hPa Calm   8 km/h 71 % 0 mm
19:44 28.5 °C 22.7 °C 1014.4 hPa Calm   8 km/h 71 % 0 mm
19:49 28.4 °C 22.6 °C 1014.4 hPa NW 1.6 km/h 6.4 km/h 71 % 0 mm
19:54 28.4 °C 22.6 °C 1014.4 hPa ESE 3.2 km/h 6.4 km/h 71 % 0 mm
19:59 28.3 °C 22.8 °C 1014.4 hPa Calm   6.4 km/h 72 % 0 mm
20:04 28.3 °C 22.8 °C 1014.4 hPa Calm   6.4 km/h 72 % 0 mm
20:10 28.2 °C 22.9 °C 1014.8 hPa Calm   4.8 km/h 73 % 0 mm
20:15 28.1 °C 22.8 °C 1014.8 hPa Calm   4.8 km/h 73 % 0 mm
20:20 28 °C 22.7 °C 1014.8 hPa Calm   4.8 km/h 73 % 0 mm
20:25 27.9 °C 22.8 °C 1014.8 hPa ENE 1.6 km/h 3.2 km/h 74 % 0 mm
20:30 27.8 °C 22.7 °C 1014.8 hPa ESE 1.6 km/h 3.2 km/h 74 % 0 mm
20:35 27.7 °C 22.6 °C 1014.8 hPa Calm   4.8 km/h 74 % 0 mm
20:40 27.7 °C 22.9 °C 1014.4 hPa East 1.6 km/h 4.8 km/h 75 % 0 mm
20:45 27.7 °C 22.9 °C 1014.4 hPa SE 3.2 km/h 4.8 km/h 75 % 0 mm
20:50 27.6 °C 22.5 °C 1014.4 hPa East 3.2 km/h 6.4 km/h 74 % 0 mm
20:55 27.6 °C 22.5 °C 1014.4 hPa Calm   6.4 km/h 74 % 0 mm
21:00 27.5 °C 22.7 °C 1014.4 hPa NW 1.6 km/h 6.4 km/h 75 % 0 mm
21:05 27.4 °C 22.6 °C 1014.4 hPa Calm   6.4 km/h 75 % 0 mm
21:10 27.4 °C 22.6 °C 1014.4 hPa Calm   6.4 km/h 75 % 0 mm
21:15 27.4 °C 22.6 °C 1014.4 hPa Calm   3.2 km/h 75 % 0 mm
21:20 27.5 °C 22.7 °C 1014.4 hPa North 3.2 km/h 4.8 km/h 75 % 0 mm
21:25 27.4 °C 22.8 °C 1014.4 hPa SE 1.6 km/h 9.7 km/h 76 % 0 mm
21:30 27.3 °C 22.9 °C 1014.4 hPa SE 3.2 km/h 9.7 km/h 77 % 0 mm
21:35 27.2 °C 23 °C 1014.4 hPa Calm   9.7 km/h 78 % 0 mm
21:40 27.1 °C 23.1 °C 1014.4 hPa East 1.6 km/h 8 km/h 79 % 0 mm
21:45 27 °C 23.3 °C 1014.8 hPa ESE 4.8 km/h 9.7 km/h 80 % 0 mm
21:50 26.9 °C 23.2 °C 1014.8 hPa SSW 3.2 km/h 9.7 km/h 80 % 0 mm
21:55 26.8 °C 23.3 °C 1014.8 hPa SSE 4.8 km/h 9.7 km/h 81 % 0 mm
22:00 26.7 °C 23.2 °C 1014.8 hPa SE 6.4 km/h 9.7 km/h 81 % 0 mm
22:05 26.5 °C 23 °C 1015.1 hPa SE 4.8 km/h 14.5 km/h 81 % 0 mm
22:10 26.4 °C 23.1 °C 1015.1 hPa ESE 3.2 km/h 14.5 km/h 82 % 0 mm
22:15 26.3 °C 23 °C 1015.1 hPa SE 3.2 km/h 14.5 km/h 82 % 0 mm
22:20 26.3 °C 23 °C 1015.1 hPa East 3.2 km/h 11.3 km/h 82 % 0 mm
22:25 26.2 °C 22.9 °C 1015.1 hPa ESE 4.8 km/h 11.3 km/h 82 % 0 mm
22:30 26.1 °C 23 °C 1015.1 hPa SE 1.6 km/h 9.7 km/h 83 % 0 mm
22:35 25.9 °C 22.8 °C 1015.1 hPa ESE 6.4 km/h 12.9 km/h 83 % 0 mm
22:40 25.8 °C 22.9 °C 1014.8 hPa SE 1.6 km/h 12.9 km/h 84 % 0 mm
22:45 25.8 °C 22.9 °C 1015.1 hPa ENE 9.7 km/h 12.9 km/h 84 % 0 mm
22:50 25.7 °C 23 °C 1015.1 hPa North 3.2 km/h 11.3 km/h 85 % 0 mm
22:55 25.6 °C 22.9 °C 1015.1 hPa Calm   11.3 km/h 85 % 0 mm
23:00 25.4 °C 22.7 °C 1015.5 hPa ESE 8 km/h 11.3 km/h 85 % 0 mm
23:05 25.4 °C 22.7 °C 1015.5 hPa Calm   9.7 km/h 85 % 0 mm
23:10 25.3 °C 22.6 °C 1015.5 hPa East 1.6 km/h 9.7 km/h 85 % 0 mm
23:15 25.2 °C 22.7 °C 1015.5 hPa East 3.2 km/h 9.7 km/h 86 % 0 mm
23:20 25.1 °C 22.6 °C 1015.5 hPa Calm   9.7 km/h 86 % 0 mm
23:25 25.1 °C 22.6 °C 1015.5 hPa SE 1.6 km/h 9.7 km/h 86 % 0 mm
23:30 24.9 °C 22.4 °C 1015.5 hPa East 1.6 km/h 9.7 km/h 86 % 0 mm
23:35 24.9 °C 22.4 °C 1015.5 hPa SE 1.6 km/h 6.4 km/h 86 % 0 mm
23:40 24.8 °C 22.3 °C 1015.5 hPa South 3.2 km/h 9.7 km/h 86 % 0 mm
23:45 24.7 °C 22.2 °C 1015.5 hPa ESE 4.8 km/h 9.7 km/h 86 % 0 mm
23:50 24.6 °C 22.1 °C 1015.5 hPa ESE 4.8 km/h 11.3 km/h 86 % 0 mm
23:56 24.6 °C 22.3 °C 1015.5 hPa ESE 3.2 km/h 11.3 km/h 87 % 0 mm
Spring, Texas: Villages of Bridgestone
Compliments of Weather Underground - 2.75 mb

Script developed by  Jim McMurry - jmcmurry@mwt.net Adapted for the template by  Wim van der Kuil - Leuven-Template.eu

You find our weather info also at:

UK Metoffice

WeatherCloud

Weather Underground

Mid-South Weather Network

AWEKAS

Citizen Weather Observer Program (CWOP)

HAMweather, WeatherForYou, PWS Weather

Equipment we use:

Weather-station
Davis Vantage Vue

Weather-program
Meteohub

Weather-server
Debian 7.9 x86 (Guest)

Provider
DreamHost

Davis Vantage Vue

Meteohub

Debian 7.9 x86 (Guest)

DreamHost